sensor_id;sensor_type;location;lat;lon;timestamp;pressure;altitude;pressure_sealevel;temperature;humidity
79663;BME280;69130;48.724;8.982;2023-04-08T06:49:13;96818.41;;;7.82;81.70
79663;BME280;69130;48.724;8.982;2023-04-08T06:51:38;96818.72;;;7.76;82.42
79663;BME280;69130;48.724;8.982;2023-04-08T06:54:03;96809.91;;;7.77;81.79
79663;BME280;69130;48.724;8.982;2023-04-08T06:56:29;96816.91;;;7.93;80.84
79663;BME280;69130;48.724;8.982;2023-04-08T06:58:54;96819.22;;;8.17;80.62
79663;BME280;69130;48.724;8.982;2023-04-08T07:01:20;96819.72;;;8.23;79.45
79663;BME280;69130;48.724;8.982;2023-04-08T07:03:45;96824.16;;;8.23;80.02
79663;BME280;69130;48.724;8.982;2023-04-08T07:06:11;96823.03;;;8.28;80.73
79663;BME280;69130;48.724;8.982;2023-04-08T07:08:36;96828.66;;;8.53;79.55
79663;BME280;69130;48.724;8.982;2023-04-08T07:11:03;96816.25;;;8.55;78.37
79663;BME280;69130;48.724;8.982;2023-04-08T07:13:28;96821.00;;;8.64;76.90
79663;BME280;69130;48.724;8.982;2023-04-08T07:15:54;96824.50;;;8.65;76.69
79663;BME280;69130;48.724;8.982;2023-04-08T07:18:20;96826.56;;;8.60;77.40
79663;BME280;69130;48.724;8.982;2023-04-08T07:20:50;96825.47;;;8.31;77.98
79663;BME280;69130;48.724;8.982;2023-04-08T07:23:15;96831.53;;;8.33;78.85
79663;BME280;69130;48.724;8.982;2023-04-08T07:25:40;96832.00;;;8.24;77.86
79663;BME280;69130;48.724;8.982;2023-04-08T07:28:06;96831.94;;;8.09;78.50
79663;BME280;69130;48.724;8.982;2023-04-08T07:30:31;96840.56;;;7.95;79.15
79663;BME280;69130;48.724;8.982;2023-04-08T07:32:56;96831.34;;;7.86;80.22
79663;BME280;69130;48.724;8.982;2023-04-08T07:35:23;96846.44;;;8.00;78.72
79663;BME280;69130;48.724;8.982;2023-04-08T07:37:49;96838.94;;;7.92;80.42
79663;BME280;69130;48.724;8.982;2023-04-08T07:40:16;96846.22;;;8.05;80.87
79663;BME280;69130;48.724;8.982;2023-04-08T07:42:41;96841.66;;;8.24;79.32
79663;BME280;69130;48.724;8.982;2023-04-08T07:45:07;96846.16;;;8.39;78.64
79663;BME280;69130;48.724;8.982;2023-04-08T07:47:32;96849.59;;;8.56;78.17
79663;BME280;69130;48.724;8.982;2023-04-08T07:49:58;96856.50;;;8.59;76.76
79663;BME280;69130;48.724;8.982;2023-04-08T07:52:23;96854.28;;;8.67;77.41
79663;BME280;69130;48.724;8.982;2023-04-08T07:54:49;96854.38;;;8.65;76.51
79663;BME280;69130;48.724;8.982;2023-04-08T07:57:14;96850.63;;;8.69;76.83
79663;BME280;69130;48.724;8.982;2023-04-08T07:59:40;96845.28;;;9.02;76.01
79663;BME280;69130;48.724;8.982;2023-04-08T08:02:05;96850.22;;;9.08;75.74
79663;BME280;69130;48.724;8.982;2023-04-08T08:04:31;96843.28;;;9.37;74.98
79663;BME280;69130;48.724;8.982;2023-04-08T08:06:56;96846.16;;;9.48;75.07
79663;BME280;69130;48.724;8.982;2023-04-08T08:09:22;96851.94;;;9.54;72.51
79663;BME280;69130;48.724;8.982;2023-04-08T08:11:47;96856.19;;;9.57;74.11
79663;BME280;69130;48.724;8.982;2023-04-08T08:14:13;96856.44;;;9.68;72.04
79663;BME280;69130;48.724;8.982;2023-04-08T08:16:38;96852.63;;;9.58;72.88
79663;BME280;69130;48.724;8.982;2023-04-08T08:19:04;96852.22;;;9.80;70.43
79663;BME280;69130;48.724;8.982;2023-04-08T08:21:31;96858.09;;;9.99;71.21
79663;BME280;69130;48.724;8.982;2023-04-08T08:23:57;96853.66;;;10.29;71.56
79663;BME280;69130;48.724;8.982;2023-04-08T08:26:24;96856.97;;;10.61;70.09
79663;BME280;69130;48.724;8.982;2023-04-08T08:28:49;96855.94;;;10.63;68.79
79663;BME280;69130;48.724;8.982;2023-04-08T08:31:15;96866.31;;;10.94;68.23
79663;BME280;69130;48.724;8.982;2023-04-08T08:33:40;96861.34;;;11.16;66.63
79663;BME280;69130;48.724;8.982;2023-04-08T08:36:05;96868.75;;;10.97;67.63
79663;BME280;69130;48.724;8.982;2023-04-08T08:38:31;96864.66;;;11.06;66.53
79663;BME280;69130;48.724;8.982;2023-04-08T08:40:58;96874.63;;;10.88;67.83
79663;BME280;69130;48.724;8.982;2023-04-08T08:43:24;96883.72;;;10.70;67.03
79663;BME280;69130;48.724;8.982;2023-04-08T08:45:49;96887.47;;;10.38;70.74
79663;BME280;69130;48.724;8.982;2023-04-08T08:48:15;96886.72;;;10.50;68.59
79663;BME280;69130;48.724;8.982;2023-04-08T08:50:41;96882.69;;;10.73;69.17
79663;BME280;69130;48.724;8.982;2023-04-08T08:53:07;96879.69;;;11.05;68.94
79663;BME280;69130;48.724;8.982;2023-04-08T08:55:32;96882.22;;;11.21;68.41
79663;BME280;69130;48.724;8.982;2023-04-08T08:57:59;96872.50;;;11.48;64.81
79663;BME280;69130;48.724;8.982;2023-04-08T09:00:39;96883.56;;;11.14;65.47
79663;BME280;69130;48.724;8.982;2023-04-08T09:03:23;96879.06;;;11.02;66.49
79663;BME280;69130;48.724;8.982;2023-04-08T09:05:55;96885.84;;;11.47;64.56
79663;BME280;69130;48.724;8.982;2023-04-08T09:08:31;96883.31;;;12.23;61.21
79663;BME280;69130;48.724;8.982;2023-04-08T09:11:29;96899.91;;;13.51;58.21
79663;BME280;69130;48.724;8.982;2023-04-08T09:13:56;96880.03;;;14.50;54.14
79663;BME280;69130;48.724;8.982;2023-04-08T09:16:21;96885.38;;;15.38;51.61
79663;BME280;69130;48.724;8.982;2023-04-08T09:18:48;96888.66;;;15.96;50.27
79663;BME280;69130;48.724;8.982;2023-04-08T09:21:14;96882.94;;;16.52;48.54
79663;BME280;69130;48.724;8.982;2023-04-08T09:23:47;96882.09;;;16.73;46.89
79663;BME280;69130;48.724;8.982;2023-04-08T09:26:15;96885.56;;;16.11;47.75
79663;BME280;69130;48.724;8.982;2023-04-08T09:28:41;96884.84;;;16.30;48.46
79663;BME280;69130;48.724;8.982;2023-04-08T09:31:23;96887.13;;;16.34;48.40
79663;BME280;69130;48.724;8.982;2023-04-08T09:33:51;96890.06;;;16.93;48.15
79663;BME280;69130;48.724;8.982;2023-04-08T09:36:18;96889.59;;;16.79;46.84
79663;BME280;69130;48.724;8.982;2023-04-08T09:38:44;96887.22;;;16.23;47.12
79663;BME280;69130;48.724;8.982;2023-04-08T09:41:13;96887.88;;;15.73;48.02
79663;BME280;69130;48.724;8.982;2023-04-08T09:43:46;96891.56;;;15.93;47.45
79663;BME280;69130;48.724;8.982;2023-04-08T09:46:17;96892.41;;;15.28;48.13
79663;BME280;69130;48.724;8.982;2023-04-08T09:49:03;96899.09;;;15.01;47.62
79663;BME280;69130;48.724;8.982;2023-04-08T09:51:39;96898.00;;;14.81;49.74
79663;BME280;69130;48.724;8.982;2023-04-08T09:54:12;96895.31;;;15.58;48.93
79663;BME280;69130;48.724;8.982;2023-04-08T09:56:42;96890.97;;;16.52;44.97
79663;BME280;69130;48.724;8.982;2023-04-08T09:59:12;96888.28;;;17.33;40.69
79663;BME280;69130;48.724;8.982;2023-04-08T10:01:43;96883.44;;;17.48;39.91
79663;BME280;69130;48.724;8.982;2023-04-08T10:04:14;96885.31;;;17.67;42.44
79663;BME280;69130;48.724;8.982;2023-04-08T10:06:41;96888.00;;;17.76;40.88
79663;BME280;69130;48.724;8.982;2023-04-08T10:09:06;96886.16;;;16.67;42.89
79663;BME280;69130;48.724;8.982;2023-04-08T10:11:32;96890.00;;;16.22;44.42
79663;BME280;69130;48.724;8.982;2023-04-08T10:13:58;96892.50;;;16.03;43.96
79663;BME280;69130;48.724;8.982;2023-04-08T10:16:24;96896.97;;;16.02;45.38
79663;BME280;69130;48.724;8.982;2023-04-08T10:18:52;96902.72;;;16.29;43.31
79663;BME280;69130;48.724;8.982;2023-04-08T10:21:38;96892.34;;;15.72;43.47
79663;BME280;69130;48.724;8.982;2023-04-08T10:24:09;96890.56;;;15.62;44.22
79663;BME280;69130;48.724;8.982;2023-04-08T10:31:41;96889.25;;;15.56;44.44
79663;BME280;69130;48.724;8.982;2023-04-08T10:36:42;96880.13;;;17.05;42.47
79663;BME280;69130;48.724;8.982;2023-04-08T10:39:08;96877.63;;;18.11;40.59
79663;BME280;69130;48.724;8.982;2023-04-08T10:41:33;96881.56;;;19.21;39.07
79663;BME280;69130;48.724;8.982;2023-04-08T10:44:02;96872.69;;;18.26;41.59
79663;BME280;69130;48.724;8.982;2023-04-08T10:46:28;96880.44;;;18.10;40.81
79663;BME280;69130;48.724;8.982;2023-04-08T10:48:59;96881.47;;;17.20;41.11
79663;BME280;69130;48.724;8.982;2023-04-08T10:51:31;96893.13;;;15.41;45.23
79663;BME280;69130;48.724;8.982;2023-04-08T10:54:08;96888.91;;;14.03;49.86
79663;BME280;69130;48.724;8.982;2023-04-08T10:56:35;96893.63;;;13.76;49.23
79663;BME280;69130;48.724;8.982;2023-04-08T10:59:01;96895.81;;;13.35;52.19
79663;BME280;69130;48.724;8.982;2023-04-08T11:01:37;96884.38;;;12.96;52.70
79663;BME280;69130;48.724;8.982;2023-04-08T11:04:10;96889.50;;;12.62;55.04
79663;BME280;69130;48.724;8.982;2023-04-08T11:06:36;96889.50;;;12.37;55.23
79663;BME280;69130;48.724;8.982;2023-04-08T11:09:02;96881.84;;;12.19;54.53
79663;BME280;69130;48.724;8.982;2023-04-08T11:11:29;96883.69;;;11.92;55.83
79663;BME280;69130;48.724;8.982;2023-04-08T11:13:55;96889.69;;;11.55;56.95
79663;BME280;69130;48.724;8.982;2023-04-08T11:16:21;96883.91;;;11.36;57.61
79663;BME280;69130;48.724;8.982;2023-04-08T11:18:47;96894.28;;;10.84;60.16
79663;BME280;69130;48.724;8.982;2023-04-08T11:21:12;96885.44;;;10.71;61.45
79663;BME280;69130;48.724;8.982;2023-04-08T11:23:37;96883.88;;;10.95;60.35
79663;BME280;69130;48.724;8.982;2023-04-08T11:26:03;96886.72;;;11.06;60.71
79663;BME280;69130;48.724;8.982;2023-04-08T11:28:29;96883.50;;;11.01;60.46
79663;BME280;69130;48.724;8.982;2023-04-08T11:30:55;96889.84;;;10.99;59.85
79663;BME280;69130;48.724;8.982;2023-04-08T11:33:24;96891.81;;;11.09;60.39
79663;BME280;69130;48.724;8.982;2023-04-08T11:35:50;96884.94;;;11.07;58.10
79663;BME280;69130;48.724;8.982;2023-04-08T11:38:22;96886.59;;;11.08;57.73
79663;BME280;69130;48.724;8.982;2023-04-08T11:40:54;96888.13;;;10.98;59.58
79663;BME280;69130;48.724;8.982;2023-04-08T11:43:20;96890.41;;;10.90;58.13
79663;BME280;69130;48.724;8.982;2023-04-08T11:45:47;96889.88;;;10.85;56.65
79663;BME280;69130;48.724;8.982;2023-04-08T11:48:14;96892.88;;;10.93;57.37
79663;BME280;69130;48.724;8.982;2023-04-08T11:50:41;96885.06;;;10.77;57.18
79663;BME280;69130;48.724;8.982;2023-04-08T11:53:16;96890.31;;;10.91;55.66
79663;BME280;69130;48.724;8.982;2023-04-08T11:55:43;96886.34;;;10.98;54.77
79663;BME280;69130;48.724;8.982;2023-04-08T11:58:09;96881.69;;;11.02;54.81
79663;BME280;69130;48.724;8.982;2023-04-08T12:00:35;96888.13;;;11.12;54.64
79663;BME280;69130;48.724;8.982;2023-04-08T12:03:01;96887.91;;;11.15;54.30
79663;BME280;69130;48.724;8.982;2023-04-08T12:05:26;96884.72;;;11.10;54.63
79663;BME280;69130;48.724;8.982;2023-04-08T12:07:52;96888.00;;;11.13;53.76
79663;BME280;69130;48.724;8.982;2023-04-08T12:10:17;96889.00;;;10.98;55.29
79663;BME280;69130;48.724;8.982;2023-04-08T12:12:42;96891.53;;;11.00;55.02
79663;BME280;69130;48.724;8.982;2023-04-08T12:15:08;96892.13;;;10.91;54.88
79663;BME280;69130;48.724;8.982;2023-04-08T12:17:34;96887.84;;;11.02;53.38
79663;BME280;69130;48.724;8.982;2023-04-08T12:20:00;96886.47;;;10.69;55.81
79663;BME280;69130;48.724;8.982;2023-04-08T12:22:25;96890.78;;;10.98;53.83
79663;BME280;69130;48.724;8.982;2023-04-08T12:24:51;96893.53;;;11.10;55.58
79663;BME280;69130;48.724;8.982;2023-04-08T12:27:16;96895.81;;;11.29;53.15
79663;BME280;69130;48.724;8.982;2023-04-08T12:29:42;96891.94;;;11.34;54.08
79663;BME280;69130;48.724;8.982;2023-04-08T12:32:07;96900.28;;;11.28;53.83
79663;BME280;69130;48.724;8.982;2023-04-08T12:34:32;96901.50;;;11.23;54.94
79663;BME280;69130;48.724;8.982;2023-04-08T12:36:58;96899.97;;;11.06;53.91
79663;BME280;69130;48.724;8.982;2023-04-08T12:39:24;96892.31;;;10.88;54.99
79663;BME280;69130;48.724;8.982;2023-04-08T12:41:50;96898.94;;;10.67;55.86
79663;BME280;69130;48.724;8.982;2023-04-08T12:44:15;96900.53;;;10.55;57.35
79663;BME280;69130;48.724;8.982;2023-04-08T12:46:40;96899.09;;;10.35;57.65
79663;BME280;69130;48.724;8.982;2023-04-08T12:49:06;96894.25;;;10.14;58.47
79663;BME280;69130;48.724;8.982;2023-04-08T12:51:31;96901.66;;;10.07;59.45
79663;BME280;69130;48.724;8.982;2023-04-08T12:53:57;96896.97;;;10.12;58.32
79663;BME280;69130;48.724;8.982;2023-04-08T12:56:24;96890.59;;;10.01;59.72
79663;BME280;69130;48.724;8.982;2023-04-08T12:58:49;96899.56;;;9.98;60.44
79663;BME280;69130;48.724;8.982;2023-04-08T13:01:15;96895.09;;;9.99;60.78
79663;BME280;69130;48.724;8.982;2023-04-08T13:03:40;96888.44;;;10.07;60.61
79663;BME280;69130;48.724;8.982;2023-04-08T13:06:06;96891.09;;;10.07;59.32
79663;BME280;69130;48.724;8.982;2023-04-08T13:08:32;96890.56;;;10.16;60.41
79663;BME280;69130;48.724;8.982;2023-04-08T13:10:57;96884.75;;;10.39;58.82
79663;BME280;69130;48.724;8.982;2023-04-08T13:13:23;96886.25;;;10.72;58.27
79663;BME280;69130;48.724;8.982;2023-04-08T13:15:48;96881.91;;;10.85;58.24
79663;BME280;69130;48.724;8.982;2023-04-08T13:18:13;96882.06;;;11.10;58.72
79663;BME280;69130;48.724;8.982;2023-04-08T13:20:39;96886.69;;;11.20;57.17
79663;BME280;69130;48.724;8.982;2023-04-08T13:23:04;96880.72;;;11.17;56.14
79663;BME280;69130;48.724;8.982;2023-04-08T13:25:30;96885.34;;;11.27;56.88
79663;BME280;69130;48.724;8.982;2023-04-08T13:27:55;96884.34;;;11.42;57.01
79663;BME280;69130;48.724;8.982;2023-04-08T13:30:20;96879.72;;;11.46;55.89
79663;BME280;69130;48.724;8.982;2023-04-08T13:32:46;96880.91;;;11.28;56.88
79663;BME280;69130;48.724;8.982;2023-04-08T13:35:11;96876.53;;;11.27;58.03
79663;BME280;69130;48.724;8.982;2023-04-08T13:37:37;96881.03;;;11.39;56.87
79663;BME280;69130;48.724;8.982;2023-04-08T13:40:03;96885.81;;;11.34;56.43
79663;BME280;69130;48.724;8.982;2023-04-08T13:42:28;96885.41;;;11.40;57.18
79663;BME280;69130;48.724;8.982;2023-04-08T13:44:57;96892.00;;;11.47;57.58
79663;BME280;69130;48.724;8.982;2023-04-08T13:47:22;96885.91;;;11.59;55.54
79663;BME280;69130;48.724;8.982;2023-04-08T13:49:48;96890.66;;;11.54;56.10
79663;BME280;69130;48.724;8.982;2023-04-08T13:52:13;96888.41;;;11.48;54.78
79663;BME280;69130;48.724;8.982;2023-04-08T13:54:39;96887.84;;;11.43;57.66
79663;BME280;69130;48.724;8.982;2023-04-08T13:57:05;96889.47;;;11.46;56.85
79663;BME280;69130;48.724;8.982;2023-04-08T13:59:30;96875.09;;;11.62;55.34
79663;BME280;69130;48.724;8.982;2023-04-08T14:01:56;96890.44;;;11.57;56.43
79663;BME280;69130;48.724;8.982;2023-04-08T14:04:21;96883.25;;;11.32;56.23
79663;BME280;69130;48.724;8.982;2023-04-08T14:06:48;96890.50;;;11.43;56.07
79663;BME280;69130;48.724;8.982;2023-04-08T14:09:17;96890.09;;;11.22;54.96
79663;BME280;69130;48.724;8.982;2023-04-08T14:11:43;96887.84;;;11.16;56.69
79663;BME280;69130;48.724;8.982;2023-04-08T14:14:08;96885.59;;;11.37;56.66
79663;BME280;69130;48.724;8.982;2023-04-08T14:16:34;96894.69;;;11.74;55.02
79663;BME280;69130;48.724;8.982;2023-04-08T14:19:00;96886.28;;;11.67;55.55
79663;BME280;69130;48.724;8.982;2023-04-08T14:21:26;96892.13;;;11.72;54.66
79663;BME280;69130;48.724;8.982;2023-04-08T14:23:51;96880.25;;;11.51;55.17
79663;BME280;69130;48.724;8.982;2023-04-08T14:26:17;96885.09;;;11.44;55.78
79663;BME280;69130;48.724;8.982;2023-04-08T14:28:42;96882.09;;;11.63;54.91
79663;BME280;69130;48.724;8.982;2023-04-08T14:31:07;96885.19;;;11.84;56.24
79663;BME280;69130;48.724;8.982;2023-04-08T14:33:33;96880.75;;;11.97;55.63
79663;BME280;69130;48.724;8.982;2023-04-08T14:35:58;96888.97;;;12.19;55.50
79663;BME280;69130;48.724;8.982;2023-04-08T14:38:25;96883.25;;;12.38;54.07
79663;BME280;69130;48.724;8.982;2023-04-08T14:40:50;96891.34;;;12.49;54.42
79663;BME280;69130;48.724;8.982;2023-04-08T14:43:16;96894.28;;;12.69;52.60
79663;BME280;69130;48.724;8.982;2023-04-08T14:45:41;96900.34;;;12.71;52.33
79663;BME280;69130;48.724;8.982;2023-04-08T14:48:09;96895.47;;;12.53;52.63
79663;BME280;69130;48.724;8.982;2023-04-08T14:50:34;96894.19;;;12.58;53.48
79663;BME280;69130;48.724;8.982;2023-04-08T14:53:00;96890.50;;;12.61;53.51
79663;BME280;69130;48.724;8.982;2023-04-08T14:55:26;96894.59;;;12.65;53.42
79663;BME280;69130;48.724;8.982;2023-04-08T14:57:52;96891.63;;;12.32;53.38
79663;BME280;69130;48.724;8.982;2023-04-08T15:00:18;96890.13;;;12.27;52.88
79663;BME280;69130;48.724;8.982;2023-04-08T15:02:43;96897.06;;;12.43;53.56
79663;BME280;69130;48.724;8.982;2023-04-08T15:05:08;96896.28;;;13.16;51.01
79663;BME280;69130;48.724;8.982;2023-04-08T15:07:34;96902.63;;;13.26;50.87
79663;BME280;69130;48.724;8.982;2023-04-08T15:09:59;96901.50;;;13.05;51.93
79663;BME280;69130;48.724;8.982;2023-04-08T15:12:25;96899.63;;;12.57;52.74
79663;BME280;69130;48.724;8.982;2023-04-08T15:14:50;96901.09;;;12.61;52.76
79663;BME280;69130;48.724;8.982;2023-04-08T15:17:16;96895.25;;;12.56;53.21
79663;BME280;69130;48.724;8.982;2023-04-08T15:19:41;96900.75;;;12.27;53.67
79663;BME280;69130;48.724;8.982;2023-04-08T15:22:06;96896.78;;;11.69;54.14
79663;BME280;69130;48.724;8.982;2023-04-08T15:24:32;96909.00;;;11.57;55.28
79663;BME280;69130;48.724;8.982;2023-04-08T15:26:57;96906.91;;;11.21;56.53
79663;BME280;69130;48.724;8.982;2023-04-08T15:29:22;96912.16;;;10.95;57.01
79663;BME280;69130;48.724;8.982;2023-04-08T15:31:48;96910.38;;;10.81;57.22
79663;BME280;69130;48.724;8.982;2023-04-08T15:34:13;96903.66;;;10.62;58.77
79663;BME280;69130;48.724;8.982;2023-04-08T15:36:39;96912.34;;;10.49;59.22
79663;BME280;69130;48.724;8.982;2023-04-08T15:39:04;96917.53;;;10.37;59.30
79663;BME280;69130;48.724;8.982;2023-04-08T15:41:30;96914.59;;;10.27;59.53
79663;BME280;69130;48.724;8.982;2023-04-08T15:43:56;96911.28;;;10.24;60.32
79663;BME280;69130;48.724;8.982;2023-04-08T15:46:22;96914.75;;;10.24;60.19
79663;BME280;69130;48.724;8.982;2023-04-08T15:48:48;96916.88;;;10.33;59.07
79663;BME280;69130;48.724;8.982;2023-04-08T15:51:14;96917.31;;;10.40;59.18
79663;BME280;69130;48.724;8.982;2023-04-08T15:53:40;96912.41;;;10.34;59.70
79663;BME280;69130;48.724;8.982;2023-04-08T15:56:05;96913.91;;;10.38;58.54
79663;BME280;69130;48.724;8.982;2023-04-08T15:58:35;96922.72;;;10.38;58.52
79663;BME280;69130;48.724;8.982;2023-04-08T16:01:01;96921.22;;;10.48;58.33
79663;BME280;69130;48.724;8.982;2023-04-08T16:03:26;96922.75;;;10.52;57.90
79663;BME280;69130;48.724;8.982;2023-04-08T16:05:51;96920.94;;;10.53;59.16
79663;BME280;69130;48.724;8.982;2023-04-08T16:08:17;96920.75;;;10.70;58.08
79663;BME280;69130;48.724;8.982;2023-04-08T16:10:42;96931.63;;;10.66;57.73
79663;BME280;69130;48.724;8.982;2023-04-08T16:13:07;96936.16;;;10.64;58.17
79663;BME280;69130;48.724;8.982;2023-04-08T16:15:34;96931.25;;;10.72;56.29
79663;BME280;69130;48.724;8.982;2023-04-08T16:18:00;96934.28;;;10.66;56.04
79663;BME280;69130;48.724;8.982;2023-04-08T16:20:26;96934.19;;;10.53;56.89
79663;BME280;69130;48.724;8.982;2023-04-08T16:22:52;96931.72;;;10.64;56.85
79663;BME280;69130;48.724;8.982;2023-04-08T16:25:18;96948.25;;;10.68;57.04
79663;BME280;69130;48.724;8.982;2023-04-08T16:27:43;96940.50;;;10.50;56.72
79663;BME280;69130;48.724;8.982;2023-04-08T16:30:09;96946.75;;;10.49;58.61
79663;BME280;69130;48.724;8.982;2023-04-08T16:32:34;96947.13;;;10.57;57.65
79663;BME280;69130;48.724;8.982;2023-04-08T16:35:00;96943.81;;;10.68;57.54
79663;BME280;69130;48.724;8.982;2023-04-08T16:37:26;96952.47;;;11.40;56.02
79663;BME280;69130;48.724;8.982;2023-04-08T16:39:51;96950.72;;;11.82;53.07
79663;BME280;69130;48.724;8.982;2023-04-08T16:42:16;96954.06;;;11.57;54.57
79663;BME280;69130;48.724;8.982;2023-04-08T16:44:42;96959.63;;;11.12;55.62
79663;BME280;69130;48.724;8.982;2023-04-08T16:47:07;96960.47;;;10.84;56.63
79663;BME280;69130;48.724;8.982;2023-04-08T16:49:33;96963.47;;;10.50;57.19
79663;BME280;69130;48.724;8.982;2023-04-08T16:51:58;96960.94;;;10.19;59.11
79663;BME280;69130;48.724;8.982;2023-04-08T16:54:23;96971.31;;;10.06;59.29
79663;BME280;69130;48.724;8.982;2023-04-08T16:56:49;96963.72;;;9.86;60.51
79663;BME280;69130;48.724;8.982;2023-04-08T16:59:14;96973.63;;;9.67;61.67
79663;BME280;69130;48.724;8.982;2023-04-08T17:01:40;96972.09;;;9.63;61.94
79663;BME280;69130;48.724;8.982;2023-04-08T17:04:05;96968.66;;;9.61;60.92
79663;BME280;69130;48.724;8.982;2023-04-08T17:06:31;96981.22;;;9.57;61.89
79663;BME280;69130;48.724;8.982;2023-04-08T17:08:58;96982.94;;;9.43;62.64
79663;BME280;69130;48.724;8.982;2023-04-08T17:11:24;96988.03;;;9.30;62.06
79663;BME280;69130;48.724;8.982;2023-04-08T17:13:50;96979.56;;;9.08;64.34
79663;BME280;69130;48.724;8.982;2023-04-08T17:16:16;96979.66;;;9.07;63.26
79663;BME280;69130;48.724;8.982;2023-04-08T17:18:43;96984.50;;;8.99;64.51
79663;BME280;69130;48.724;8.982;2023-04-08T17:21:08;96985.22;;;8.85;65.43
79663;BME280;69130;48.724;8.982;2023-04-08T17:23:34;96985.88;;;8.73;66.07
79663;BME280;69130;48.724;8.982;2023-04-08T17:26:09;96985.19;;;8.69;66.21
79663;BME280;69130;48.724;8.982;2023-04-08T17:28:35;96983.72;;;8.64;66.42
79663;BME280;69130;48.724;8.982;2023-04-08T17:31:00;96993.19;;;8.68;65.07
79663;BME280;69130;48.724;8.982;2023-04-08T17:33:26;96996.06;;;8.63;66.62
79663;BME280;69130;48.724;8.982;2023-04-08T17:35:52;97003.75;;;8.51;68.73
79663;BME280;69130;48.724;8.982;2023-04-08T17:38:18;97008.16;;;8.33;71.46
79663;BME280;69130;48.724;8.982;2023-04-08T17:40:43;97011.19;;;8.43;71.52
79663;BME280;69130;48.724;8.982;2023-04-08T17:43:08;97027.94;;;8.25;73.08
79663;BME280;69130;48.724;8.982;2023-04-08T17:45:34;97018.50;;;8.02;74.78
79663;BME280;69130;48.724;8.982;2023-04-08T17:47:59;97018.53;;;7.83;75.99
79663;BME280;69130;48.724;8.982;2023-04-08T17:50:26;97022.00;;;7.67;77.82
79663;BME280;69130;48.724;8.982;2023-04-08T17:52:51;97023.22;;;7.60;77.34
79663;BME280;69130;48.724;8.982;2023-04-08T17:55:16;97018.88;;;7.59;79.30
79663;BME280;69130;48.724;8.982;2023-04-08T17:57:42;97012.50;;;7.46;80.68
79663;BME280;69130;48.724;8.982;2023-04-08T18:00:08;97009.88;;;7.46;80.24
79663;BME280;69130;48.724;8.982;2023-04-08T18:02:34;97017.97;;;7.41;79.44
79663;BME280;69130;48.724;8.982;2023-04-08T18:05:00;97021.09;;;7.31;80.10
79663;BME280;69130;48.724;8.982;2023-04-08T18:07:26;97014.56;;;7.21;80.91
79663;BME280;69130;48.724;8.982;2023-04-08T18:09:51;97020.16;;;7.13;82.09
79663;BME280;69130;48.724;8.982;2023-04-08T18:12:17;97023.78;;;7.11;82.13
79663;BME280;69130;48.724;8.982;2023-04-08T18:14:43;97031.56;;;7.14;82.46
79663;BME280;69130;48.724;8.982;2023-04-08T18:17:08;97038.59;;;7.13;83.61
79663;BME280;69130;48.724;8.982;2023-04-08T18:19:34;97034.59;;;7.04;83.53
79663;BME280;69130;48.724;8.982;2023-04-08T18:22:00;97044.47;;;6.99;84.18
79663;BME280;69130;48.724;8.982;2023-04-08T18:24:25;97050.94;;;6.92;84.48
79663;BME280;69130;48.724;8.982;2023-04-08T18:26:50;97054.50;;;6.91;84.26
79663;BME280;69130;48.724;8.982;2023-04-08T18:29:16;97050.34;;;6.86;84.41
79663;BME280;69130;48.724;8.982;2023-04-08T18:31:41;97058.38;;;6.83;85.00
79663;BME280;69130;48.724;8.982;2023-04-08T18:34:07;97061.06;;;6.81;85.20
79663;BME280;69130;48.724;8.982;2023-04-08T18:36:32;97061.16;;;6.80;85.91
79663;BME280;69130;48.724;8.982;2023-04-08T18:38:58;97054.25;;;6.77;85.97
79663;BME280;69130;48.724;8.982;2023-04-08T18:41:23;97058.59;;;6.78;85.01
79663;BME280;69130;48.724;8.982;2023-04-08T18:43:52;97059.38;;;6.80;85.29
79663;BME280;69130;48.724;8.982;2023-04-08T18:46:18;97061.16;;;6.80;85.20
79663;BME280;69130;48.724;8.982;2023-04-08T18:48:44;97070.88;;;6.78;84.45
79663;BME280;69130;48.724;8.982;2023-04-08T18:51:10;97074.38;;;6.78;84.40
79663;BME280;69130;48.724;8.982;2023-04-08T18:53:37;97074.38;;;6.78;84.55
79663;BME280;69130;48.724;8.982;2023-04-08T18:56:04;97084.91;;;6.78;84.26
79663;BME280;69130;48.724;8.982;2023-04-08T18:58:30;97086.50;;;6.81;83.19
79663;BME280;69130;48.724;8.982;2023-04-08T19:01:04;97091.00;;;6.79;83.82
79663;BME280;69130;48.724;8.982;2023-04-08T19:03:30;97086.22;;;6.88;81.46
79663;BME280;69130;48.724;8.982;2023-04-08T19:05:57;97100.97;;;6.91;81.59
79663;BME280;69130;48.724;8.982;2023-04-08T19:08:25;97100.41;;;6.84;82.06
79663;BME280;69130;48.724;8.982;2023-04-08T19:10:54;97087.56;;;6.77;82.62
79663;BME280;69130;48.724;8.982;2023-04-08T19:13:20;97086.00;;;6.73;82.02
79663;BME280;69130;48.724;8.982;2023-04-08T19:15:51;97099.09;;;6.74;82.45
79663;BME280;69130;48.724;8.982;2023-04-08T19:18:16;97103.34;;;6.77;81.34
79663;BME280;69130;48.724;8.982;2023-04-08T19:20:42;97102.50;;;6.76;81.27
79663;BME280;69130;48.724;8.982;2023-04-08T19:23:07;97105.94;;;6.78;81.72
79663;BME280;69130;48.724;8.982;2023-04-08T19:25:33;97105.00;;;6.79;80.80
79663;BME280;69130;48.724;8.982;2023-04-08T19:27:58;97110.41;;;6.76;81.65
79663;BME280;69130;48.724;8.982;2023-04-08T19:30:24;97106.84;;;6.77;81.50
79663;BME280;69130;48.724;8.982;2023-04-08T19:32:49;97108.75;;;6.74;81.40
79663;BME280;69130;48.724;8.982;2023-04-08T19:35:15;97113.28;;;6.70;82.43
79663;BME280;69130;48.724;8.982;2023-04-08T19:37:40;97111.72;;;6.66;81.65
79663;BME280;69130;48.724;8.982;2023-04-08T19:40:07;97106.56;;;6.63;81.70
79663;BME280;69130;48.724;8.982;2023-04-08T19:42:33;97112.84;;;6.61;82.22
79663;BME280;69130;48.724;8.982;2023-04-08T19:44:58;97111.78;;;6.65;81.97
79663;BME280;69130;48.724;8.982;2023-04-08T19:47:26;97118.03;;;6.62;82.54
79663;BME280;69130;48.724;8.982;2023-04-08T19:49:52;97114.53;;;6.62;82.21
79663;BME280;69130;48.724;8.982;2023-04-08T19:52:17;97117.75;;;6.68;81.40
79663;BME280;69130;48.724;8.982;2023-04-08T19:54:48;97121.38;;;6.66;81.97
79663;BME280;69130;48.724;8.982;2023-04-08T19:57:14;97121.56;;;6.61;82.44